sensor_id;sensor_type;location;lat;lon;timestamp;pressure;altitude;pressure_sealevel;temperature;humidity
33161;BME280;19522;45.656;11.302;2023-07-31T00:00:49;98137.53;;;22.92;91.02
33161;BME280;19522;45.656;11.302;2023-07-31T00:03:15;98120.09;;;22.86;91.12
33161;BME280;19522;45.656;11.302;2023-07-31T00:05:40;98139.47;;;23.01;91.03
33161;BME280;19522;45.656;11.302;2023-07-31T00:08:06;98116.75;;;22.94;90.62
33161;BME280;19522;45.656;11.302;2023-07-31T00:10:31;98086.31;;;22.79;90.61
33161;BME280;19522;45.656;11.302;2023-07-31T00:12:57;98110.13;;;23.00;90.16
33161;BME280;19522;45.656;11.302;2023-07-31T00:15:22;98061.97;;;22.81;89.73
33161;BME280;19522;45.656;11.302;2023-07-31T00:17:48;98099.59;;;23.02;89.74
33161;BME280;19522;45.656;11.302;2023-07-31T00:20:14;98097.38;;;23.04;89.72
33161;BME280;19522;45.656;11.302;2023-07-31T00:22:39;98127.03;;;23.25;89.55
33161;BME280;19522;45.656;11.302;2023-07-31T00:25:05;98112.34;;;23.19;89.40
33161;BME280;19522;45.656;11.302;2023-07-31T00:27:32;98118.41;;;23.16;89.97
33161;BME280;19522;45.656;11.302;2023-07-31T00:29:57;98133.97;;;23.22;90.15
33161;BME280;19522;45.656;11.302;2023-07-31T00:32:23;98139.50;;;23.22;90.45
33161;BME280;19522;45.656;11.302;2023-07-31T00:34:48;98114.53;;;23.07;90.29
33161;BME280;19522;45.656;11.302;2023-07-31T00:37:14;98154.16;;;23.17;91.17
33161;BME280;19522;45.656;11.302;2023-07-31T00:39:40;98143.31;;;23.16;90.63
33161;BME280;19522;45.656;11.302;2023-07-31T00:42:06;98079.69;;;22.69;91.31
33161;BME280;19522;45.656;11.302;2023-07-31T00:44:32;98144.44;;;22.94;91.91
33161;BME280;19522;45.656;11.302;2023-07-31T00:47:01;98137.53;;;22.76;92.45
33161;BME280;19522;45.656;11.302;2023-07-31T00:49:27;98126.75;;;22.75;92.32
33161;BME280;19522;45.656;11.302;2023-07-31T00:51:53;98122.84;;;22.76;91.34
33161;BME280;19522;45.656;11.302;2023-07-31T00:54:18;98145.00;;;23.01;91.11
33161;BME280;19522;45.656;11.302;2023-07-31T00:56:45;98111.53;;;22.77;91.02
33161;BME280;19522;45.656;11.302;2023-07-31T00:59:11;98122.88;;;22.81;91.20
33161;BME280;19522;45.656;11.302;2023-07-31T01:01:40;98151.38;;;22.97;90.64
33161;BME280;19522;45.656;11.302;2023-07-31T01:04:06;98112.63;;;22.66;91.25
33161;BME280;19522;45.656;11.302;2023-07-31T01:11:57;98102.38;;;22.46;92.32
33161;BME280;19522;45.656;11.302;2023-07-31T01:14:25;98088.53;;;22.40;91.75
33161;BME280;19522;45.656;11.302;2023-07-31T01:16:51;98093.47;;;22.38;92.22
33161;BME280;19522;45.656;11.302;2023-07-31T01:19:20;98116.50;;;22.49;92.18
33161;BME280;19522;45.656;11.302;2023-07-31T01:27:27;98113.13;;;22.42;93.10
33161;BME280;19522;45.656;11.302;2023-07-31T01:30:18;98136.69;;;22.55;93.11
33161;BME280;19522;45.656;11.302;2023-07-31T01:32:48;98145.78;;;22.45;93.89
33161;BME280;19522;45.656;11.302;2023-07-31T01:35:14;98128.84;;;22.31;94.16
33161;BME280;19522;45.656;11.302;2023-07-31T01:37:40;98111.38;;;22.05;95.08
33161;BME280;19522;45.656;11.302;2023-07-31T01:40:06;98141.00;;;22.20;95.42
33161;BME280;19522;45.656;11.302;2023-07-31T01:42:32;98139.28;;;22.08;96.23
33161;BME280;19522;45.656;11.302;2023-07-31T01:44:57;98138.72;;;22.01;96.74
33161;BME280;19522;45.656;11.302;2023-07-31T01:47:23;98131.25;;;21.97;97.27
33161;BME280;19522;45.656;11.302;2023-07-31T01:49:49;98080.56;;;21.65;96.72
33161;BME280;19522;45.656;11.302;2023-07-31T01:52:14;98104.66;;;21.85;96.79
33161;BME280;19522;45.656;11.302;2023-07-31T01:54:40;98123.47;;;21.88;97.05
33161;BME280;19522;45.656;11.302;2023-07-31T01:57:05;98115.44;;;21.82;97.75
33161;BME280;19522;45.656;11.302;2023-07-31T01:59:31;98120.72;;;21.88;97.10
33161;BME280;19522;45.656;11.302;2023-07-31T02:01:57;98109.91;;;21.76;97.16
33161;BME280;19522;45.656;11.302;2023-07-31T02:04:22;98111.03;;;21.86;96.47
33161;BME280;19522;45.656;11.302;2023-07-31T02:06:47;98118.47;;;21.85;96.82
33161;BME280;19522;45.656;11.302;2023-07-31T02:09:13;98106.59;;;21.85;96.91
33161;BME280;19522;45.656;11.302;2023-07-31T02:11:38;98094.97;;;21.77;96.65
33161;BME280;19522;45.656;11.302;2023-07-31T02:14:04;98106.03;;;21.77;97.11
33161;BME280;19522;45.656;11.302;2023-07-31T02:16:29;98105.44;;;21.70;98.17
33161;BME280;19522;45.656;11.302;2023-07-31T02:18:55;98057.75;;;21.37;98.15
33161;BME280;19522;45.656;11.302;2023-07-31T02:21:20;98118.75;;;21.78;97.46
33161;BME280;19522;45.656;11.302;2023-07-31T02:23:46;98108.25;;;21.81;97.07
33161;BME280;19522;45.656;11.302;2023-07-31T02:26:11;98103.84;;;21.85;96.88
33161;BME280;19522;45.656;11.302;2023-07-31T02:28:37;98091.38;;;21.72;96.79
33161;BME280;19522;45.656;11.302;2023-07-31T02:31:02;98110.19;;;21.80;96.91
33161;BME280;19522;45.656;11.302;2023-07-31T02:33:28;98116.56;;;21.86;97.04
33161;BME280;19522;45.656;11.302;2023-07-31T02:35:53;98086.59;;;21.62;97.65
33161;BME280;19522;45.656;11.302;2023-07-31T02:38:19;98034.97;;;21.14;99.65
33161;BME280;19522;45.656;11.302;2023-07-31T02:40:44;98058.28;;;21.34;99.30
33161;BME280;19522;45.656;11.302;2023-07-31T02:43:10;98098.16;;;21.54;99.55
33161;BME280;19522;45.656;11.302;2023-07-31T02:45:35;98072.66;;;21.36;99.51
33161;BME280;19522;45.656;11.302;2023-07-31T02:48:01;98099.75;;;21.44;99.45
33161;BME280;19522;45.656;11.302;2023-07-31T02:50:26;98100.06;;;21.48;99.37
33161;BME280;19522;45.656;11.302;2023-07-31T02:52:55;98095.63;;;21.47;99.29
33161;BME280;19522;45.656;11.302;2023-07-31T02:55:20;98088.09;;;21.32;99.53
33161;BME280;19522;45.656;11.302;2023-07-31T02:57:45;98098.66;;;21.45;98.98
33161;BME280;19522;45.656;11.302;2023-07-31T03:00:12;98101.75;;;21.54;98.27
33161;BME280;19522;45.656;11.302;2023-07-31T03:02:38;98097.28;;;21.48;98.36
33161;BME280;19522;45.656;11.302;2023-07-31T03:05:03;98076.44;;;21.20;99.62
33161;BME280;19522;45.656;11.302;2023-07-31T03:07:29;98097.22;;;21.38;99.54
33161;BME280;19522;45.656;11.302;2023-07-31T03:09:55;98082.84;;;21.30;98.56
33161;BME280;19522;45.656;11.302;2023-07-31T03:12:21;98092.56;;;21.38;98.08
33161;BME280;19522;45.656;11.302;2023-07-31T03:14:46;98099.19;;;21.42;98.96
33161;BME280;19522;45.656;11.302;2023-07-31T03:17:12;98102.00;;;21.47;98.64
33161;BME280;19522;45.656;11.302;2023-07-31T03:19:37;98065.13;;;21.21;99.50
33161;BME280;19522;45.656;11.302;2023-07-31T03:22:03;98097.81;;;21.45;99.21
33161;BME280;19522;45.656;11.302;2023-07-31T03:24:29;98029.69;;;21.02;99.06
33161;BME280;19522;45.656;11.302;2023-07-31T03:26:54;98104.13;;;21.35;99.41
33161;BME280;19522;45.656;11.302;2023-07-31T03:29:20;98098.25;;;21.21;99.51
33161;BME280;19522;45.656;11.302;2023-07-31T03:31:45;98107.91;;;21.19;99.13
33161;BME280;19522;45.656;11.302;2023-07-31T03:34:11;98097.03;;;21.07;100.00
33161;BME280;19522;45.656;11.302;2023-07-31T03:36:36;98102.09;;;21.15;99.25
33161;BME280;19522;45.656;11.302;2023-07-31T03:39:02;98114.53;;;21.17;99.25
33161;BME280;19522;45.656;11.302;2023-07-31T03:41:28;98091.50;;;21.01;98.74
33161;BME280;19522;45.656;11.302;2023-07-31T03:43:54;98111.25;;;21.26;97.72
33161;BME280;19522;45.656;11.302;2023-07-31T03:46:22;98106.75;;;21.14;98.42
33161;BME280;19522;45.656;11.302;2023-07-31T03:48:48;98076.81;;;20.96;98.15
33161;BME280;19522;45.656;11.302;2023-07-31T03:53:48;98069.91;;;20.93;98.79
33161;BME280;19522;45.656;11.302;2023-07-31T03:56:14;98107.09;;;21.23;98.16
33161;BME280;19522;45.656;11.302;2023-07-31T03:58:39;98089.63;;;21.12;97.89
33161;BME280;19522;45.656;11.302;2023-07-31T04:01:05;98088.50;;;21.08;97.10
33161;BME280;19522;45.656;11.302;2023-07-31T04:03:31;98104.28;;;21.18;96.99
33161;BME280;19522;45.656;11.302;2023-07-31T04:05:56;98110.09;;;21.22;97.03
33161;BME280;19522;45.656;11.302;2023-07-31T04:08:22;98062.44;;;20.89;96.36
33161;BME280;19522;45.656;11.302;2023-07-31T04:10:51;98107.69;;;21.25;95.93
33161;BME280;19522;45.656;11.302;2023-07-31T04:13:16;98095.63;;;20.99;96.19
33161;BME280;19522;45.656;11.302;2023-07-31T04:15:42;98110.63;;;21.13;96.23
33161;BME280;19522;45.656;11.302;2023-07-31T04:18:07;98113.38;;;21.13;96.12
33161;BME280;19522;45.656;11.302;2023-07-31T04:20:35;98112.25;;;21.09;96.40
33161;BME280;19522;45.656;11.302;2023-07-31T04:23:01;98094.22;;;20.96;96.26
33161;BME280;19522;45.656;11.302;2023-07-31T04:25:26;98116.13;;;21.13;96.67
33161;BME280;19522;45.656;11.302;2023-07-31T04:27:52;98066.78;;;20.79;96.63
33161;BME280;19522;45.656;11.302;2023-07-31T04:30:18;98112.56;;;21.13;96.57
33161;BME280;19522;45.656;11.302;2023-07-31T04:32:43;98110.63;;;21.13;95.41
33161;BME280;19522;45.656;11.302;2023-07-31T04:35:10;98113.44;;;21.24;94.89
33161;BME280;19522;45.656;11.302;2023-07-31T04:37:36;98109.81;;;21.18;94.73
33161;BME280;19522;45.656;11.302;2023-07-31T04:40:01;98120.00;;;21.12;96.17
33161;BME280;19522;45.656;11.302;2023-07-31T04:42:27;98107.84;;;21.13;95.90
33161;BME280;19522;45.656;11.302;2023-07-31T04:44:53;98114.03;;;21.31;95.82
33161;BME280;19522;45.656;11.302;2023-07-31T04:47:19;98116.78;;;21.31;96.27
33161;BME280;19522;45.656;11.302;2023-07-31T04:49:44;98124.28;;;21.36;95.98
33161;BME280;19522;45.656;11.302;2023-07-31T04:52:10;98118.50;;;21.37;96.02
33161;BME280;19522;45.656;11.302;2023-07-31T04:54:36;98107.41;;;21.27;97.24
33161;BME280;19522;45.656;11.302;2023-07-31T04:57:02;98095.16;;;21.12;96.31
33161;BME280;19522;45.656;11.302;2023-07-31T04:59:27;98114.59;;;21.28;96.33
33161;BME280;19522;45.656;11.302;2023-07-31T05:01:52;98101.03;;;21.26;95.38
33161;BME280;19522;45.656;11.302;2023-07-31T05:04:18;98124.03;;;21.37;95.24
33161;BME280;19522;45.656;11.302;2023-07-31T05:06:44;98121.78;;;21.34;96.33
33161;BME280;19522;45.656;11.302;2023-07-31T05:09:09;98124.56;;;21.34;96.69
33161;BME280;19522;45.656;11.302;2023-07-31T05:11:35;98106.31;;;21.28;95.22
33161;BME280;19522;45.656;11.302;2023-07-31T05:14:01;98124.38;;;21.51;95.43
33161;BME280;19522;45.656;11.302;2023-07-31T05:16:26;98123.25;;;21.47;95.68
33161;BME280;19522;45.656;11.302;2023-07-31T05:18:52;98140.38;;;21.49;97.11
33161;BME280;19522;45.656;11.302;2023-07-31T05:21:17;98133.72;;;21.45;97.86
33161;BME280;19522;45.656;11.302;2023-07-31T05:23:43;98134.53;;;21.40;98.13
33161;BME280;19522;45.656;11.302;2023-07-31T05:26:08;98141.47;;;21.48;97.78
33161;BME280;19522;45.656;11.302;2023-07-31T05:28:37;98139.53;;;21.43;98.66
33161;BME280;19522;45.656;11.302;2023-07-31T05:31:04;98114.09;;;21.36;98.85
33161;BME280;19522;45.656;11.302;2023-07-31T05:33:29;98149.34;;;21.67;97.78
33161;BME280;19522;45.656;11.302;2023-07-31T05:35:56;98150.25;;;21.77;96.92
33161;BME280;19522;45.656;11.302;2023-07-31T05:38:22;98126.44;;;21.66;96.30
33161;BME280;19522;45.656;11.302;2023-07-31T05:40:47;98154.69;;;21.84;96.60
33161;BME280;19522;45.656;11.302;2023-07-31T05:43:13;98152.22;;;21.87;96.42
33161;BME280;19522;45.656;11.302;2023-07-31T05:45:39;98156.41;;;21.95;95.95
33161;BME280;19522;45.656;11.302;2023-07-31T05:48:05;98159.47;;;22.04;95.24
33161;BME280;19522;45.656;11.302;2023-07-31T05:50:34;98149.28;;;22.15;94.04
33161;BME280;19522;45.656;11.302;2023-07-31T05:53:00;98157.84;;;22.13;94.90
33161;BME280;19522;45.656;11.302;2023-07-31T05:55:26;98157.00;;;22.13;94.50
33161;BME280;19522;45.656;11.302;2023-07-31T05:58:00;98140.72;;;22.11;94.30
33161;BME280;19522;45.656;11.302;2023-07-31T06:00:26;98153.75;;;22.36;93.97
33161;BME280;19522;45.656;11.302;2023-07-31T06:02:53;98153.81;;;22.47;93.17
33161;BME280;19522;45.656;11.302;2023-07-31T06:05:18;98130.28;;;22.44;93.42
33161;BME280;19522;45.656;11.302;2023-07-31T06:07:44;98158.28;;;22.68;93.04
33161;BME280;19522;45.656;11.302;2023-07-31T06:10:09;98137.78;;;22.59;91.31
33161;BME280;19522;45.656;11.302;2023-07-31T06:12:35;98132.50;;;22.52;92.45
33161;BME280;19522;45.656;11.302;2023-07-31T06:15:02;98144.72;;;22.72;91.89
33161;BME280;19522;45.656;11.302;2023-07-31T06:17:28;98154.13;;;22.81;90.69
33161;BME280;19522;45.656;11.302;2023-07-31T06:19:54;98156.34;;;22.90;92.02
33161;BME280;19522;45.656;11.302;2023-07-31T06:22:20;98148.88;;;23.00;91.75
33161;BME280;19522;45.656;11.302;2023-07-31T06:24:46;98145.56;;;23.09;90.25
33161;BME280;19522;45.656;11.302;2023-07-31T06:27:11;98162.19;;;23.29;89.74
33161;BME280;19522;45.656;11.302;2023-07-31T06:29:37;98161.06;;;23.36;89.99
33161;BME280;19522;45.656;11.302;2023-07-31T06:32:03;98136.16;;;23.25;88.88
33161;BME280;19522;45.656;11.302;2023-07-31T06:34:28;98162.69;;;23.57;88.27
33161;BME280;19522;45.656;11.302;2023-07-31T06:36:58;98158.19;;;23.72;87.41
33161;BME280;19522;45.656;11.302;2023-07-31T06:39:23;98158.16;;;23.82;85.89
33161;BME280;19522;45.656;11.302;2023-07-31T06:41:48;98158.13;;;24.03;85.04
33161;BME280;19522;45.656;11.302;2023-07-31T06:44:14;98168.06;;;24.14;82.73
33161;BME280;19522;45.656;11.302;2023-07-31T06:46:39;98169.91;;;24.34;82.51
33161;BME280;19522;45.656;11.302;2023-07-31T06:49:05;98146.13;;;24.23;79.55
33161;BME280;19522;45.656;11.302;2023-07-31T06:51:31;98173.41;;;24.55;79.87
33161;BME280;19522;45.656;11.302;2023-07-31T06:54:01;98174.44;;;24.70;79.21
33161;BME280;19522;45.656;11.302;2023-07-31T06:56:26;98171.84;;;24.84;78.95
33161;BME280;19522;45.656;11.302;2023-07-31T06:58:52;98180.31;;;25.03;78.23
33161;BME280;19522;45.656;11.302;2023-07-31T07:01:18;98176.91;;;25.11;69.37
33161;BME280;19522;45.656;11.302;2023-07-31T07:03:43;98184.47;;;25.40;69.90
33161;BME280;19522;45.656;11.302;2023-07-31T07:06:09;98176.88;;;25.75;68.93
33161;BME280;19522;45.656;11.302;2023-07-31T07:08:34;98178.38;;;25.92;68.10
33161;BME280;19522;45.656;11.302;2023-07-31T07:11:03;98192.22;;;26.21;65.16
33161;BME280;19522;45.656;11.302;2023-07-31T07:13:29;98183.75;;;26.32;61.62
33161;BME280;19522;45.656;11.302;2023-07-31T07:15:54;98159.72;;;26.17;58.28
33161;BME280;19522;45.656;11.302;2023-07-31T07:18:22;98168.47;;;26.48;58.78
33161;BME280;19522;45.656;11.302;2023-07-31T07:20:52;98157.44;;;26.81;60.09
33161;BME280;19522;45.656;11.302;2023-07-31T07:23:19;98180.91;;;27.27;57.77
33161;BME280;19522;45.656;11.302;2023-07-31T07:25:46;98170.44;;;27.38;54.21
33161;BME280;19522;45.656;11.302;2023-07-31T07:28:12;98177.84;;;27.29;55.42
33161;BME280;19522;45.656;11.302;2023-07-31T07:30:37;98167.69;;;27.19;55.07
33161;BME280;19522;45.656;11.302;2023-07-31T07:33:06;98153.00;;;27.13;54.02
33161;BME280;19522;45.656;11.302;2023-07-31T07:35:35;98176.69;;;27.16;53.99
33161;BME280;19522;45.656;11.302;2023-07-31T07:38:04;98152.47;;;26.78;54.46
33161;BME280;19522;45.656;11.302;2023-07-31T07:40:29;98154.69;;;26.76;54.54
33161;BME280;19522;45.656;11.302;2023-07-31T07:42:55;98154.63;;;26.62;56.27
33161;BME280;19522;45.656;11.302;2023-07-31T07:45:20;98160.88;;;26.73;57.75
33161;BME280;19522;45.656;11.302;2023-07-31T07:47:46;98177.06;;;26.90;56.56
33161;BME280;19522;45.656;11.302;2023-07-31T07:50:11;98181.59;;;26.86;54.45
33161;BME280;19522;45.656;11.302;2023-07-31T07:52:40;98173.84;;;27.02;54.81
33161;BME280;19522;45.656;11.302;2023-07-31T07:55:05;98176.69;;;27.16;55.54
33161;BME280;19522;45.656;11.302;2023-07-31T07:57:31;98162.09;;;27.19;55.06
33161;BME280;19522;45.656;11.302;2023-07-31T07:59:56;98181.97;;;27.50;54.64
33161;BME280;19522;45.656;11.302;2023-07-31T08:02:22;98176.38;;;27.50;51.57
33161;BME280;19522;45.656;11.302;2023-07-31T08:04:47;98134.38;;;27.28;52.46
33161;BME280;19522;45.656;11.302;2023-07-31T08:07:13;98157.19;;;27.77;53.36
33161;BME280;19522;45.656;11.302;2023-07-31T08:09:39;98128.28;;;27.87;53.72
33161;BME280;19522;45.656;11.302;2023-07-31T08:12:06;98159.91;;;28.10;50.69
33161;BME280;19522;45.656;11.302;2023-07-31T08:14:32;98153.97;;;28.25;51.43
33161;BME280;19522;45.656;11.302;2023-07-31T08:16:57;98139.41;;;28.28;51.09
33161;BME280;19522;45.656;11.302;2023-07-31T08:19:26;98160.09;;;27.99;50.43
33161;BME280;19522;45.656;11.302;2023-07-31T08:21:51;98133.53;;;27.88;51.71
33161;BME280;19522;45.656;11.302;2023-07-31T08:24:17;98165.53;;;28.05;51.95
33161;BME280;19522;45.656;11.302;2023-07-31T08:26:45;98157.81;;;28.02;51.89
33161;BME280;19522;45.656;11.302;2023-07-31T08:29:12;98161.63;;;28.20;51.35
33161;BME280;19522;45.656;11.302;2023-07-31T08:31:37;98168.63;;;28.45;50.88
33161;BME280;19522;45.656;11.302;2023-07-31T08:34:03;98157.13;;;28.60;51.50
33161;BME280;19522;45.656;11.302;2023-07-31T08:36:28;98172.44;;;28.63;49.23
33161;BME280;19522;45.656;11.302;2023-07-31T08:38:54;98173.47;;;28.53;50.75
33161;BME280;19522;45.656;11.302;2023-07-31T08:41:19;98173.22;;;28.77;50.77
33161;BME280;19522;45.656;11.302;2023-07-31T08:43:49;98171.94;;;28.98;49.50
33161;BME280;19522;45.656;11.302;2023-07-31T08:46:15;98169.66;;;29.00;50.43
33161;BME280;19522;45.656;11.302;2023-07-31T08:48:42;98128.84;;;28.76;49.55
33161;BME280;19522;45.656;11.302;2023-07-31T08:51:08;98172.75;;;29.21;49.50
33161;BME280;19522;45.656;11.302;2023-07-31T08:53:34;98172.84;;;28.56;49.80
33161;BME280;19522;45.656;11.302;2023-07-31T08:56:00;98176.34;;;28.76;51.47
33161;BME280;19522;45.656;11.302;2023-07-31T08:58:31;98174.41;;;28.99;50.76
33161;BME280;19522;45.656;11.302;2023-07-31T09:00:57;98176.53;;;29.25;50.42
33161;BME280;19522;45.656;11.302;2023-07-31T09:03:25;98136.84;;;29.14;48.93
33161;BME280;19522;45.656;11.302;2023-07-31T09:05:51;98166.63;;;29.19;47.10
33161;BME280;19522;45.656;11.302;2023-07-31T09:08:20;98166.81;;;29.22;47.94
33161;BME280;19522;45.656;11.302;2023-07-31T09:10:47;98172.41;;;29.22;47.55
33161;BME280;19522;45.656;11.302;2023-07-31T09:13:15;98175.72;;;29.02;45.85
33161;BME280;19522;45.656;11.302;2023-07-31T09:15:43;98166.22;;;28.66;47.66
33161;BME280;19522;45.656;11.302;2023-07-31T09:18:09;98173.69;;;28.71;47.62
33161;BME280;19522;45.656;11.302;2023-07-31T09:20:35;98164.91;;;28.50;48.34
33161;BME280;19522;45.656;11.302;2023-07-31T09:23:13;98163.00;;;28.59;49.69
33161;BME280;19522;45.656;11.302;2023-07-31T09:25:40;98154.09;;;28.34;49.50
33161;BME280;19522;45.656;11.302;2023-07-31T09:28:10;98156.16;;;28.28;49.15
33161;BME280;19522;45.656;11.302;2023-07-31T09:30:49;98151.38;;;28.43;52.45
33161;BME280;19522;45.656;11.302;2023-07-31T09:33:15;98121.81;;;28.42;48.67
33161;BME280;19522;45.656;11.302;2023-07-31T09:35:41;98114.00;;;28.16;48.92
33161;BME280;19522;45.656;11.302;2023-07-31T09:38:10;98144.63;;;28.07;49.40
33161;BME280;19522;45.656;11.302;2023-07-31T09:40:45;98150.47;;;28.20;51.07
33161;BME280;19522;45.656;11.302;2023-07-31T09:43:11;98150.38;;;28.25;50.81
33161;BME280;19522;45.656;11.302;2023-07-31T09:45:38;98139.97;;;28.17;49.47
33161;BME280;19522;45.656;11.302;2023-07-31T09:48:14;98125.34;;;28.20;51.30
33161;BME280;19522;45.656;11.302;2023-07-31T09:50:43;98138.44;;;28.47;49.83
33161;BME280;19522;45.656;11.302;2023-07-31T09:53:09;98130.38;;;28.45;48.74
33161;BME280;19522;45.656;11.302;2023-07-31T09:55:36;98132.09;;;28.55;48.79
33161;BME280;19522;45.656;11.302;2023-07-31T09:58:09;98126.88;;;28.40;48.30
33161;BME280;19522;45.656;11.302;2023-07-31T10:00:35;98135.84;;;28.51;50.87
33161;BME280;19522;45.656;11.302;2023-07-31T10:03:10;98090.66;;;28.49;49.30
33161;BME280;19522;45.656;11.302;2023-07-31T10:05:46;98126.28;;;28.66;48.86
33161;BME280;19522;45.656;11.302;2023-07-31T10:08:15;98080.22;;;28.18;49.09
33161;BME280;19522;45.656;11.302;2023-07-31T10:10:42;98123.94;;;28.08;50.23
33161;BME280;19522;45.656;11.302;2023-07-31T10:13:08;98109.16;;;28.08;51.08
33161;BME280;19522;45.656;11.302;2023-07-31T10:15:38;98144.88;;;28.34;50.81
33161;BME280;19522;45.656;11.302;2023-07-31T10:18:06;98145.44;;;28.58;47.81
33161;BME280;19522;45.656;11.302;2023-07-31T10:20:34;98137.97;;;28.68;46.83
33161;BME280;19522;45.656;11.302;2023-07-31T10:23:01;98132.53;;;28.85;46.86
33161;BME280;19522;45.656;11.302;2023-07-31T10:25:27;98128.28;;;28.88;45.02
33161;BME280;19522;45.656;11.302;2023-07-31T10:27:54;98133.81;;;29.02;44.84
33161;BME280;19522;45.656;11.302;2023-07-31T10:30:22;98139.78;;;29.09;45.33
33161;BME280;19522;45.656;11.302;2023-07-31T10:32:51;98137.28;;;29.07;45.07
33161;BME280;19522;45.656;11.302;2023-07-31T10:35:18;98138.88;;;29.22;45.21
33161;BME280;19522;45.656;11.302;2023-07-31T10:37:43;98136.94;;;29.32;47.80
33161;BME280;19522;45.656;11.302;2023-07-31T10:40:11;98133.63;;;29.52;47.84
33161;BME280;19522;45.656;11.302;2023-07-31T10:42:47;98121.31;;;29.53;44.90
33161;BME280;19522;45.656;11.302;2023-07-31T10:45:17;98060.59;;;29.22;46.08
33161;BME280;19522;45.656;11.302;2023-07-31T10:47:49;98113.16;;;29.12;47.10
33161;BME280;19522;45.656;11.302;2023-07-31T10:50:20;98107.59;;;29.20;46.82
33161;BME280;19522;45.656;11.302;2023-07-31T10:52:56;98107.78;;;28.92;45.46
33161;BME280;19522;45.656;11.302;2023-07-31T10:55:32;98110.13;;;28.76;49.16
33161;BME280;19522;45.656;11.302;2023-07-31T10:58:06;98118.41;;;28.68;47.47
33161;BME280;19522;45.656;11.302;2023-07-31T11:00:32;98104.19;;;28.55;48.59
33161;BME280;19522;45.656;11.302;2023-07-31T11:03:08;98109.50;;;28.80;49.30
33161;BME280;19522;45.656;11.302;2023-07-31T11:05:52;98118.06;;;29.06;48.09
33161;BME280;19522;45.656;11.302;2023-07-31T11:08:32;98118.69;;;29.03;48.49
33161;BME280;19522;45.656;11.302;2023-07-31T11:15:59;98116.00;;;29.20;49.80
33161;BME280;19522;45.656;11.302;2023-07-31T11:18:26;98116.00;;;29.20;48.30
33161;BME280;19522;45.656;11.302;2023-07-31T11:20:52;98110.00;;;29.04;47.30
33161;BME280;19522;45.656;11.302;2023-07-31T11:23:19;98114.38;;;28.97;48.60
33161;BME280;19522;45.656;11.302;2023-07-31T11:25:46;98108.16;;;29.00;50.36
33161;BME280;19522;45.656;11.302;2023-07-31T11:28:16;98107.44;;;29.17;49.62
33161;BME280;19522;45.656;11.302;2023-07-31T11:30:43;98098.47;;;29.29;47.41
33161;BME280;19522;45.656;11.302;2023-07-31T11:33:10;98095.16;;;29.27;48.28
33161;BME280;19522;45.656;11.302;2023-07-31T11:35:45;98081.03;;;29.32;49.66
33161;BME280;19522;45.656;11.302;2023-07-31T11:38:11;98085.06;;;29.40;49.36
33161;BME280;19522;45.656;11.302;2023-07-31T11:40:44;98088.28;;;29.64;51.10
33161;BME280;19522;45.656;11.302;2023-07-31T11:43:10;98067.41;;;29.71;49.81
33161;BME280;19522;45.656;11.302;2023-07-31T11:45:47;98084.56;;;29.87;48.42
33161;BME280;19522;45.656;11.302;2023-07-31T11:48:24;98059.69;;;29.85;47.08
33161;BME280;19522;45.656;11.302;2023-07-31T11:50:53;98073.09;;;29.97;48.01
33161;BME280;19522;45.656;11.302;2023-07-31T11:53:26;98078.31;;;29.90;47.94
33161;BME280;19522;45.656;11.302;2023-07-31T11:55:55;98048.63;;;29.71;47.43
33161;BME280;19522;45.656;11.302;2023-07-31T11:58:21;98023.22;;;29.41;48.61
33161;BME280;19522;45.656;11.302;2023-07-31T12:00:48;98025.41;;;29.21;49.95
33161;BME280;19522;45.656;11.302;2023-07-31T12:03:17;98066.88;;;29.60;50.10
33161;BME280;19522;45.656;11.302;2023-07-31T12:05:47;98063.09;;;29.56;47.96
33161;BME280;19522;45.656;11.302;2023-07-31T12:08:20;98042.78;;;29.41;48.47
33161;BME280;19522;45.656;11.302;2023-07-31T12:10:46;98053.28;;;29.35;47.98
33161;BME280;19522;45.656;11.302;2023-07-31T12:13:24;98072.06;;;29.12;50.92
33161;BME280;19522;45.656;11.302;2023-07-31T12:16:00;98048.22;;;28.83;50.55
33161;BME280;19522;45.656;11.302;2023-07-31T12:18:39;98064.63;;;28.62;49.97
33161;BME280;19522;45.656;11.302;2023-07-31T12:21:09;98059.97;;;28.35;51.31
33161;BME280;19522;45.656;11.302;2023-07-31T12:23:38;98051.59;;;28.35;51.85
33161;BME280;19522;45.656;11.302;2023-07-31T12:26:11;98061.78;;;28.30;52.93
33161;BME280;19522;45.656;11.302;2023-07-31T12:31:31;98049.00;;;28.16;52.04
33161;BME280;19522;45.656;11.302;2023-07-31T12:34:17;98023.72;;;27.84;52.03
33161;BME280;19522;45.656;11.302;2023-07-31T12:36:44;97994.53;;;27.53;53.00
33161;BME280;19522;45.656;11.302;2023-07-31T12:39:15;98044.63;;;27.59;51.49
33161;BME280;19522;45.656;11.302;2023-07-31T12:41:42;98021.75;;;27.43;53.10
33161;BME280;19522;45.656;11.302;2023-07-31T12:44:07;98033.66;;;27.62;54.15
33161;BME280;19522;45.656;11.302;2023-07-31T12:46:36;98003.72;;;27.54;53.29
33161;BME280;19522;45.656;11.302;2023-07-31T12:49:04;97959.13;;;27.54;52.29
33161;BME280;19522;45.656;11.302;2023-07-31T12:51:32;98019.00;;;28.44;52.26
33161;BME280;19522;45.656;11.302;2023-07-31T12:54:02;97992.03;;;28.85;51.45
33161;BME280;19522;45.656;11.302;2023-07-31T12:56:30;97975.31;;;28.94;49.30
33161;BME280;19522;45.656;11.302;2023-07-31T12:58:56;98001.09;;;29.31;47.95
33161;BME280;19522;45.656;11.302;2023-07-31T13:01:21;97997.41;;;29.53;46.83
33161;BME280;19522;45.656;11.302;2023-07-31T13:03:47;97971.28;;;29.58;46.14
33161;BME280;19522;45.656;11.302;2023-07-31T13:06:13;97993.09;;;30.13;45.77
33161;BME280;19522;45.656;11.302;2023-07-31T13:08:38;97991.63;;;30.16;44.71
33161;BME280;19522;45.656;11.302;2023-07-31T13:11:04;97979.44;;;30.03;45.58